Finley, Oklahoma
Current Conditions -  °F | °C
As of 12:15 AM on Monday 22 Dec 2014 (Local Time) from KHHW Reporting Station
Overcast Overcast  
Wind Chill: 46°   Ceiling: 1300
Heat Index: 49°   Visibility: 10mi
Dew Point: 45°   Wind: 8mph
Humidity: 84%   Direction: 160°SSE
Pressure: 29.74"   Gusts: NA
Location:  34.33°N, 95.5°W
Report Text: KHHW 220615Z AUTO 16007KT 10SM OVC013 10/07 A2974 RMK AO2 T00970072
Loading
Personal Weather Stations






























Interactive Weather Map New forecast layout! Learn more

10-Day Weather Forecast

Advertisements
Track Severe Weather on mobile